createdAt,value
2022-10-22T00:00:03.671Z,22.7
2022-10-22T00:15:01.663Z,22.7
2022-10-22T00:30:03.454Z,22.7
2022-10-22T00:45:03.528Z,22.6
2022-10-22T01:00:03.543Z,22.6
2022-10-22T01:15:01.572Z,22.6
2022-10-22T01:30:04.428Z,22.6
2022-10-22T01:45:01.256Z,22.5
2022-10-22T02:00:02.594Z,22.5
2022-10-22T02:15:04.767Z,22.5
2022-10-22T02:30:03.530Z,22.5
2022-10-22T02:45:01.645Z,22.5
2022-10-22T03:00:05.563Z,22.4
2022-10-22T03:15:04.254Z,22.4
2022-10-22T03:30:01.627Z,22.4
2022-10-22T03:45:04.449Z,22.4
2022-10-22T04:00:04.347Z,22.4
2022-10-22T04:15:01.257Z,22.4
2022-10-22T04:30:04.474Z,22.4
2022-10-22T04:45:03.423Z,22.4
2022-10-22T05:00:03.497Z,22.4
2022-10-22T05:15:02.555Z,22.4
2022-10-22T05:30:03.613Z,22.5
2022-10-22T05:45:03.107Z,22.5
2022-10-22T06:00:05.157Z,22.5
2022-10-22T06:15:05.455Z,22.5
2022-10-22T06:30:03.345Z,22.5
2022-10-22T06:45:02.356Z,22.6
2022-10-22T07:00:02.578Z,22.6
2022-10-22T07:15:03.768Z,22.7
2022-10-22T07:30:04.789Z,22.8
2022-10-22T07:45:03.677Z,22.8
2022-10-22T08:00:05.757Z,22.9
2022-10-22T08:15:02.386Z,23
2022-10-22T08:30:04.652Z,23
2022-10-22T08:45:03.471Z,23.1
2022-10-22T09:00:02.425Z,23.1
2022-10-22T09:15:04.785Z,23.1
2022-10-22T09:30:05.682Z,23.1
2022-10-22T09:45:01.443Z,23.1
2022-10-22T10:00:02.784Z,23.1
2022-10-22T10:15:03.356Z,23
2022-10-22T10:30:01.406Z,22.9
2022-10-22T10:45:02.658Z,22.9
2022-10-22T11:00:02.283Z,22.8
2022-10-22T11:15:02.511Z,22.8
2022-10-22T11:30:04.122Z,22.8
2022-10-22T11:45:02.615Z,22.9
2022-10-22T12:00:03.305Z,22.9
2022-10-22T12:15:03.377Z,23
2022-10-22T12:30:03.412Z,23
2022-10-22T12:45:01.528Z,23
2022-10-22T13:00:02.314Z,23
2022-10-22T13:15:04.529Z,23.1
2022-10-22T13:30:04.390Z,23.2
2022-10-22T14:00:04.338Z,23.4
2022-10-22T14:15:02.253Z,23.4
2022-10-22T14:30:04.445Z,23.5
2022-10-22T14:45:04.354Z,23.5
2022-10-22T15:00:03.172Z,23.5
2022-10-22T15:15:05.255Z,23.6
2022-10-22T15:30:04.522Z,23.6
2022-10-22T15:45:01.479Z,23.6
2022-10-22T16:00:03.161Z,23.7
2022-10-22T16:15:05.295Z,23.8
2022-10-22T16:30:05.522Z,23.8
2022-10-22T16:45:04.271Z,23.8
2022-10-22T17:00:05.163Z,23.8
2022-10-22T17:15:02.558Z,23.9
2022-10-22T17:30:05.661Z,23.9
2022-10-22T17:45:04.404Z,23.9
2022-10-22T18:00:05.355Z,23.9
2022-10-22T18:15:02.626Z,23.9
2022-10-22T18:30:04.211Z,23.9
2022-10-22T18:45:05.158Z,24
2022-10-22T19:00:05.494Z,24
2022-10-22T19:15:05.178Z,24
2022-10-22T19:30:05.462Z,24
2022-10-22T19:45:05.281Z,24
2022-10-22T20:00:03.432Z,23.9
2022-10-22T20:15:02.587Z,23.9
2022-10-22T20:30:02.623Z,23.8
2022-10-22T20:45:01.286Z,23.7
2022-10-22T21:00:04.111Z,23.7
2022-10-22T21:30:05.229Z,23.6
2022-10-22T21:45:02.538Z,23.6
2022-10-22T22:15:03.250Z,23.5
2022-10-22T22:45:04.076Z,23.4
2022-10-22T23:00:05.552Z,23.4
2022-10-22T23:15:01.260Z,23.4
2022-10-22T23:45:03.349Z,23.3
